createdAt,value
2022-09-28T00:02:12.118Z,91.80
2022-09-28T00:04:43.064Z,91.90
2022-09-28T00:07:12.558Z,92.10
2022-09-28T00:09:43.314Z,92.00
2022-09-28T00:12:12.612Z,92.00
2022-09-28T00:14:44.217Z,92.10
2022-09-28T00:17:14.124Z,92.10
2022-09-28T00:19:46.243Z,92.30
2022-09-28T00:22:15.699Z,92.30
2022-09-28T00:24:53.874Z,92.40
2022-09-28T00:27:26.224Z,92.40
2022-09-28T00:29:56.028Z,92.40
2022-09-28T00:32:28.756Z,92.30
2022-09-28T00:34:58.169Z,92.20
2022-09-28T00:37:29.752Z,92.30
2022-09-28T00:39:59.453Z,92.30
2022-09-28T00:42:28.961Z,92.30
2022-09-28T00:45:02.105Z,92.50
2022-09-28T00:47:49.583Z,92.20
2022-09-28T00:50:45.973Z,92.30
2022-09-28T00:53:26.825Z,92.60
2022-09-28T00:56:09.563Z,92.20
2022-09-28T00:58:48.040Z,92.40
2022-09-28T01:01:18.104Z,92.30
2022-09-28T01:03:49.139Z,92.60
2022-09-28T01:06:22.378Z,92.30
2022-09-28T01:08:58.335Z,92.40
2022-09-28T01:11:29.242Z,92.30
2022-09-28T01:14:00.161Z,92.30
2022-09-28T01:17:15.705Z,92.30
2022-09-28T01:20:35.623Z,92.40
2022-09-28T01:23:58.148Z,92.50
2022-09-28T01:26:57.945Z,92.40
2022-09-28T01:29:50.218Z,92.20
2022-09-28T01:32:31.678Z,92.20
2022-09-28T01:35:15.636Z,92.30
2022-09-28T01:38:02.794Z,92.30
2022-09-28T01:40:35.223Z,92.30
2022-09-28T01:43:15.235Z,92.30
2022-09-28T01:46:23.023Z,92.30
2022-09-28T01:49:02.799Z,92.20
2022-09-28T01:51:50.190Z,92.30
2022-09-28T01:54:34.821Z,92.30
2022-09-28T01:57:16.925Z,92.10
2022-09-28T02:00:13.204Z,92.20
2022-09-28T02:03:13.602Z,92.20
2022-09-28T02:06:00.921Z,92.20
2022-09-28T02:09:02.365Z,92.30
2022-09-28T02:11:48.967Z,92.30
2022-09-28T02:14:19.893Z,92.40
2022-09-28T02:16:54.868Z,92.30
2022-09-28T02:19:32.680Z,92.30
2022-09-28T02:22:24.568Z,92.30
2022-09-28T02:25:20.398Z,92.20
2022-09-28T02:28:05.400Z,92.20
2022-09-28T02:30:38.880Z,92.10
2022-09-28T02:33:21.941Z,92.10
2022-09-28T02:35:52.029Z,92.10
2022-09-28T02:38:24.193Z,91.90
2022-09-28T02:41:38.449Z,91.80
2022-09-28T02:44:28.208Z,92.00
2022-09-28T02:47:40.394Z,92.00
2022-09-28T02:50:34.926Z,92.00
2022-09-28T02:53:55.243Z,92.10
2022-09-28T02:56:52.331Z,92.30
2022-09-28T03:00:00.431Z,92.40
2022-09-28T03:03:15.165Z,92.40
2022-09-28T03:06:20.428Z,92.40
2022-09-28T03:09:14.484Z,92.40
2022-09-28T03:11:51.864Z,92.40
2022-09-28T03:14:21.880Z,92.40
2022-09-28T03:16:55.345Z,92.40
2022-09-28T03:19:31.341Z,92.50
2022-09-28T03:22:04.166Z,92.60
2022-09-28T03:24:33.775Z,92.60
2022-09-28T03:27:05.076Z,92.50
2022-09-28T03:29:34.888Z,92.60
2022-09-28T03:32:09.518Z,92.60
2022-09-28T03:34:39.977Z,92.60
2022-09-28T03:37:09.329Z,92.60
2022-09-28T03:39:39.612Z,92.60
2022-09-28T03:42:11.172Z,92.60
2022-09-28T03:44:44.972Z,92.60
2022-09-28T03:47:15.962Z,92.70
2022-09-28T03:49:46.345Z,92.60
2022-09-28T03:52:18.298Z,92.70
2022-09-28T03:54:49.323Z,92.70
2022-09-28T03:57:18.922Z,92.80
2022-09-28T03:59:49.535Z,92.90
2022-09-28T04:02:18.951Z,92.70
2022-09-28T04:04:48.563Z,92.60
2022-09-28T04:07:17.860Z,92.60
2022-09-28T04:09:47.200Z,92.50
2022-09-28T04:12:17.079Z,92.50
2022-09-28T04:14:47.468Z,92.40
2022-09-28T04:17:16.933Z,92.60
2022-09-28T04:19:47.464Z,92.60
2022-09-28T04:22:42.457Z,92.60
2022-09-28T04:25:12.070Z,92.60
2022-09-28T04:28:02.321Z,92.70
2022-09-28T04:30:32.190Z,92.70
2022-09-28T04:33:01.600Z,92.80
2022-09-28T04:35:33.035Z,92.90
2022-09-28T04:38:04.833Z,92.80
2022-09-28T04:40:35.284Z,92.90
2022-09-28T04:43:09.257Z,92.90
2022-09-28T04:45:39.030Z,93.00
2022-09-28T04:48:13.327Z,93.00
2022-09-28T04:51:06.304Z,92.90
2022-09-28T04:53:35.774Z,92.80
2022-09-28T04:56:13.524Z,92.70
2022-09-28T04:58:43.845Z,92.90
2022-09-28T05:01:20.053Z,92.80
2022-09-28T05:04:07.947Z,92.90
2022-09-28T05:07:01.085Z,92.80
2022-09-28T05:09:33.008Z,92.50
2022-09-28T05:12:04.728Z,92.50
2022-09-28T05:14:34.604Z,92.30
2022-09-28T05:17:05.478Z,92.10
2022-09-28T05:19:50.027Z,91.90
2022-09-28T05:22:19.429Z,91.90
2022-09-28T05:24:50.412Z,91.70
2022-09-28T05:27:19.837Z,91.50
2022-09-28T05:29:58.685Z,91.20
2022-09-28T05:32:46.811Z,91.10
2022-09-28T05:35:43.883Z,91.10
2022-09-28T05:38:14.324Z,91.00
2022-09-28T05:40:43.785Z,90.60
2022-09-28T05:43:14.282Z,90.80
2022-09-28T05:45:47.354Z,90.90
2022-09-28T05:48:19.870Z,90.70
2022-09-28T05:50:53.443Z,90.70
2022-09-28T05:53:25.603Z,90.70
2022-09-28T05:56:00.528Z,90.50
2022-09-28T05:58:35.181Z,90.50
2022-09-28T06:01:07.901Z,90.50
2022-09-28T06:03:42.607Z,90.30
2022-09-28T06:06:12.673Z,90.30
2022-09-28T06:08:52.500Z,90.40
2022-09-28T06:11:45.537Z,90.40
2022-09-28T06:14:26.305Z,90.20
2022-09-28T06:17:00.257Z,90.00
2022-09-28T06:19:31.150Z,89.80
2022-09-28T06:22:19.450Z,89.40
2022-09-28T06:24:57.511Z,89.40
2022-09-28T06:27:27.764Z,88.80
2022-09-28T06:30:02.363Z,87.70
2022-09-28T06:32:35.372Z,87.30
2022-09-28T06:35:10.026Z,87.10
2022-09-28T06:37:39.886Z,87.40
2022-09-28T06:40:10.671Z,87.60
2022-09-28T06:42:44.261Z,87.10
2022-09-28T06:45:31.534Z,86.50
2022-09-28T06:48:15.094Z,85.70
2022-09-28T06:50:52.105Z,84.60
2022-09-28T06:53:38.554Z,83.60
2022-09-28T06:56:33.161Z,83.50
2022-09-28T06:59:02.996Z,83.60
2022-09-28T07:01:35.282Z,83.60
2022-09-28T07:04:28.759Z,83.40
2022-09-28T07:07:17.632Z,83.50
2022-09-28T07:10:04.023Z,83.20
2022-09-28T07:13:21.720Z,83.10
2022-09-28T07:16:08.286Z,83.40
2022-09-28T07:18:38.646Z,83.10
2022-09-28T07:21:11.191Z,83.00
2022-09-28T07:23:52.391Z,82.60
2022-09-28T07:26:26.131Z,82.30
2022-09-28T07:29:02.417Z,82.10
2022-09-28T07:31:35.272Z,81.70
2022-09-28T07:34:18.721Z,81.50
2022-09-28T07:37:14.460Z,81.50
2022-09-28T07:40:02.401Z,81.10
2022-09-28T07:42:33.796Z,80.50
2022-09-28T07:45:03.762Z,79.80
2022-09-28T07:47:35.216Z,79.60
2022-09-28T07:50:37.517Z,79.30
2022-09-28T07:53:23.352Z,78.10
2022-09-28T07:56:08.741Z,77.10
2022-09-28T07:58:47.330Z,76.70
2022-09-28T08:01:37.041Z,76.40
2022-09-28T08:04:06.722Z,76.30
2022-09-28T08:06:40.595Z,76.00
2022-09-28T08:09:11.927Z,75.20
2022-09-28T08:12:00.282Z,74.40
2022-09-28T08:15:00.338Z,74.00
2022-09-28T08:17:51.004Z,74.20
2022-09-28T08:20:47.010Z,73.40
2022-09-28T08:23:20.572Z,73.30
2022-09-28T08:25:55.105Z,72.60
2022-09-28T08:28:25.938Z,72.10
2022-09-28T08:31:01.925Z,71.70
2022-09-28T08:33:35.509Z,71.20
2022-09-28T08:36:24.239Z,70.80
2022-09-28T08:38:56.713Z,70.40
2022-09-28T08:42:06.319Z,69.90
2022-09-28T08:45:07.310Z,69.30
2022-09-28T08:48:51.784Z,69.00
2022-09-28T08:52:06.600Z,68.50
2022-09-28T08:54:55.487Z,68.40
2022-09-28T08:57:48.744Z,68.30
2022-09-28T09:00:51.195Z,68.10
2022-09-28T09:03:34.409Z,67.90
2022-09-28T09:06:54.306Z,68.20
2022-09-28T09:10:03.109Z,68.10
2022-09-28T09:12:56.197Z,67.80
2022-09-28T09:15:38.601Z,67.20
2022-09-28T09:19:16.610Z,66.40
2022-09-28T09:22:25.050Z,65.40
2022-09-28T09:25:24.699Z,63.90
2022-09-28T09:28:30.560Z,62.00
2022-09-28T09:31:14.855Z,61.10
2022-09-28T09:33:55.223Z,60.60
2022-09-28T09:37:15.161Z,59.90
2022-09-28T09:40:43.699Z,59.70
2022-09-28T09:43:42.126Z,59.20
2022-09-28T09:46:54.190Z,59.20
2022-09-28T09:49:41.462Z,60.00
2022-09-28T09:52:52.583Z,60.20
2022-09-28T09:55:34.534Z,59.50
2022-09-28T09:58:37.927Z,59.30
2022-09-28T10:01:27.229Z,59.20
2022-09-28T10:04:28.498Z,59.10
2022-09-28T10:07:06.379Z,58.50
2022-09-28T10:09:45.853Z,59.40
2022-09-28T10:12:35.459Z,58.90
2022-09-28T10:15:08.237Z,58.70
2022-09-28T10:17:50.139Z,58.10
2022-09-28T10:20:47.514Z,57.30
2022-09-28T10:23:38.377Z,56.90
2022-09-28T10:26:26.209Z,57.30
2022-09-28T10:29:04.707Z,56.60
2022-09-28T10:31:44.078Z,56.20
2022-09-28T10:34:30.630Z,55.90
2022-09-28T10:37:12.015Z,55.60
2022-09-28T10:40:43.892Z,55.40
2022-09-28T10:43:51.343Z,55.80
2022-09-28T10:46:24.327Z,55.90
2022-09-28T10:49:02.766Z,56.20
2022-09-28T10:51:58.412Z,56.60
2022-09-28T10:54:37.249Z,56.40
2022-09-28T10:57:39.981Z,55.70
2022-09-28T11:00:34.834Z,55.20
2022-09-28T11:03:29.670Z,53.90
2022-09-28T11:06:08.613Z,53.30
2022-09-28T11:08:44.724Z,53.10
2022-09-28T11:11:20.198Z,53.60
2022-09-28T11:14:01.253Z,54.00
2022-09-28T11:16:36.552Z,53.70
2022-09-28T11:19:19.387Z,53.80
2022-09-28T11:21:51.143Z,54.10
2022-09-28T11:24:26.038Z,54.40
2022-09-28T11:27:00.360Z,54.90
2022-09-28T11:29:43.329Z,55.20
2022-09-28T11:32:18.705Z,54.40
2022-09-28T11:35:07.421Z,54.20
2022-09-28T11:38:17.437Z,53.70
2022-09-28T11:41:13.611Z,54.00
2022-09-28T11:43:58.010Z,54.70
2022-09-28T11:47:01.346Z,53.80
2022-09-28T11:49:50.494Z,54.00
2022-09-28T11:52:36.580Z,53.60
2022-09-28T11:55:35.240Z,52.40
2022-09-28T11:58:27.835Z,52.30
2022-09-28T12:01:20.628Z,52.60
2022-09-28T12:04:26.560Z,53.00
2022-09-28T12:07:33.043Z,53.10
2022-09-28T12:10:17.432Z,52.80
2022-09-28T12:13:17.041Z,52.80
2022-09-28T12:16:38.389Z,52.00
2022-09-28T12:19:14.003Z,52.00
2022-09-28T12:21:53.523Z,52.40
2022-09-28T12:24:40.571Z,52.30
2022-09-28T12:27:33.843Z,52.60
2022-09-28T12:30:28.459Z,52.30
2022-09-28T12:33:13.415Z,52.60
2022-09-28T12:36:17.264Z,52.30
2022-09-28T12:39:36.026Z,51.50
2022-09-28T12:42:35.973Z,51.40
2022-09-28T12:45:30.965Z,51.50
2022-09-28T12:48:49.938Z,52.00
2022-09-28T12:51:42.169Z,52.50
2022-09-28T12:54:57.983Z,52.80
2022-09-28T12:58:05.262Z,53.30
2022-09-28T13:01:09.633Z,53.10
2022-09-28T13:04:03.499Z,53.30
2022-09-28T13:06:53.002Z,52.30
2022-09-28T13:09:29.050Z,51.30
2022-09-28T13:12:42.952Z,51.70
2022-09-28T13:15:33.183Z,52.00
2022-09-28T13:18:24.777Z,52.80
2022-09-28T13:21:49.781Z,53.50
2022-09-28T13:24:32.830Z,53.40
2022-09-28T13:27:32.085Z,53.70
2022-09-28T13:30:06.497Z,54.10
2022-09-28T13:32:39.088Z,54.80
2022-09-28T13:35:22.583Z,54.80
2022-09-28T13:38:16.674Z,54.10
2022-09-28T13:41:04.435Z,53.50
2022-09-28T13:44:20.339Z,53.30
2022-09-28T13:47:01.492Z,53.80
2022-09-28T13:49:58.323Z,54.20
2022-09-28T13:52:30.332Z,54.30
2022-09-28T13:55:18.649Z,54.80
2022-09-28T13:58:23.742Z,55.30
2022-09-28T14:01:37.017Z,56.10
2022-09-28T14:04:24.298Z,56.70
2022-09-28T14:07:10.672Z,57.20
2022-09-28T14:10:08.625Z,57.60
2022-09-28T14:12:37.810Z,58.00
2022-09-28T14:15:37.768Z,58.20
2022-09-28T14:18:31.671Z,58.30
2022-09-28T14:21:25.747Z,58.30
2022-09-28T14:24:55.551Z,58.40
2022-09-28T14:28:07.800Z,58.60
2022-09-28T14:30:43.237Z,58.50
2022-09-28T14:33:17.118Z,58.70
2022-09-28T14:36:05.017Z,58.60
2022-09-28T14:39:13.473Z,58.70
2022-09-28T14:41:44.089Z,58.90
2022-09-28T14:44:18.865Z,58.90
2022-09-28T14:46:48.803Z,59.00
2022-09-28T14:49:19.259Z,59.20
2022-09-28T14:51:48.607Z,59.80
2022-09-28T14:54:45.478Z,59.20
2022-09-28T14:57:31.089Z,59.50
2022-09-28T15:00:09.199Z,59.80
2022-09-28T15:02:51.955Z,60.00
2022-09-28T15:05:38.655Z,60.30
2022-09-28T15:08:11.918Z,60.40
2022-09-28T15:10:50.197Z,60.40
2022-09-28T15:13:28.605Z,60.60
2022-09-28T15:16:10.050Z,60.80
2022-09-28T15:19:18.752Z,60.80
2022-09-28T15:21:50.139Z,60.90
2022-09-28T15:24:43.214Z,61.00
2022-09-28T15:27:19.207Z,61.20
2022-09-28T15:30:25.679Z,61.30
2022-09-28T15:32:57.094Z,61.60
2022-09-28T15:35:30.207Z,61.80
2022-09-28T15:37:59.571Z,61.80
2022-09-28T15:40:38.551Z,62.00
2022-09-28T15:43:37.927Z,62.10
2022-09-28T15:46:22.526Z,62.60
2022-09-28T15:48:57.321Z,62.40
2022-09-28T15:51:28.525Z,62.50
2022-09-28T15:54:11.591Z,62.60
2022-09-28T15:56:59.924Z,62.90
2022-09-28T15:59:38.207Z,62.80
2022-09-28T16:02:14.538Z,63.00
2022-09-28T16:04:54.214Z,63.40
2022-09-28T16:07:39.867Z,63.50
2022-09-28T16:10:12.257Z,63.80
2022-09-28T16:18:04.631Z,64.60
2022-09-28T16:20:38.581Z,65.70
2022-09-28T16:23:21.732Z,66.50
2022-09-28T16:26:06.228Z,67.60
2022-09-28T16:28:38.432Z,68.50
2022-09-28T16:31:13.613Z,69.10
2022-09-28T16:33:46.962Z,69.70
2022-09-28T16:36:17.497Z,70.20
2022-09-28T16:38:48.842Z,70.70
2022-09-28T16:41:26.067Z,70.90
2022-09-28T16:44:02.643Z,71.10
2022-09-28T16:46:37.756Z,71.20
2022-09-28T16:49:47.424Z,71.30
2022-09-28T16:52:36.752Z,71.50
2022-09-28T16:55:38.798Z,71.70
2022-09-28T16:58:11.547Z,71.80
2022-09-28T17:00:43.543Z,71.90
2022-09-28T17:03:20.690Z,71.90
2022-09-28T17:05:51.728Z,72.10
2022-09-28T17:08:24.127Z,72.20
2022-09-28T17:11:24.526Z,72.40
2022-09-28T17:13:59.141Z,72.80
2022-09-28T17:16:58.188Z,73.10
2022-09-28T17:19:25.155Z,73.60
2022-09-28T17:21:54.574Z,74.00
2022-09-28T17:24:24.887Z,74.10
2022-09-28T17:27:00.822Z,74.30
2022-09-28T17:29:30.587Z,74.40
2022-09-28T17:32:00.038Z,74.50
2022-09-28T17:34:29.554Z,74.70
2022-09-28T17:36:59.868Z,75.50
2022-09-28T17:39:29.196Z,75.20
2022-09-28T17:42:01.360Z,75.30
2022-09-28T17:44:33.766Z,75.40
2022-09-28T17:47:10.022Z,75.50
2022-09-28T17:49:40.166Z,75.60
2022-09-28T17:52:12.575Z,75.70
2022-09-28T17:54:45.094Z,75.60
2022-09-28T17:57:20.378Z,75.60
2022-09-28T17:59:56.264Z,75.60
2022-09-28T18:02:28.993Z,75.90
2022-09-28T18:05:12.235Z,76.10
2022-09-28T18:07:53.871Z,76.10
2022-09-28T18:10:27.651Z,76.30
2022-09-28T18:12:57.141Z,76.40
2022-09-28T18:15:26.779Z,76.60
2022-09-28T18:17:59.173Z,76.70
2022-09-28T18:20:28.900Z,76.60
2022-09-28T18:22:58.234Z,76.70
2022-09-28T18:25:27.657Z,76.90
2022-09-28T18:27:57.698Z,77.10
2022-09-28T18:30:28.248Z,77.30
2022-09-28T18:32:58.729Z,77.30
2022-09-28T18:35:28.054Z,77.50
2022-09-28T18:37:57.495Z,77.60
2022-09-28T18:40:36.078Z,77.70
2022-09-28T18:43:05.451Z,77.80
2022-09-28T18:45:37.488Z,77.80
2022-09-28T18:48:16.785Z,77.80
2022-09-28T18:50:51.779Z,77.90
2022-09-28T18:53:21.108Z,78.10
2022-09-28T18:55:50.873Z,78.30
2022-09-28T18:58:33.026Z,78.50
2022-09-28T19:01:28.561Z,78.70
2022-09-28T19:04:04.079Z,78.80
2022-09-28T19:06:37.233Z,79.00
2022-09-28T19:09:08.042Z,79.30
2022-09-28T19:11:37.741Z,79.60
2022-09-28T19:14:07.090Z,79.90
2022-09-28T19:16:36.545Z,80.00
2022-09-28T19:19:06.668Z,80.80
2022-09-28T19:21:36.080Z,80.20
2022-09-28T19:24:05.724Z,80.60
2022-09-28T19:26:35.033Z,80.90
2022-09-28T19:29:04.392Z,80.90
2022-09-28T19:31:33.944Z,81.00
2022-09-28T19:34:03.944Z,81.00
2022-09-28T19:36:33.552Z,81.00
2022-09-28T19:39:03.513Z,81.20
2022-09-28T19:41:44.415Z,81.10
2022-09-28T19:44:29.261Z,81.00
2022-09-28T19:47:11.715Z,81.10
2022-09-28T19:49:41.782Z,81.90
2022-09-28T19:52:16.814Z,81.50
2022-09-28T19:55:00.029Z,81.60
2022-09-28T19:57:32.701Z,81.80
2022-09-28T20:00:03.790Z,81.90
2022-09-28T20:02:36.529Z,82.00
2022-09-28T20:05:06.172Z,82.20
2022-09-28T20:07:36.275Z,82.40
2022-09-28T20:10:06.292Z,82.50
2022-09-28T20:12:35.680Z,82.60
2022-09-28T20:15:06.886Z,82.80
2022-09-28T20:17:37.047Z,82.90
2022-09-28T20:20:09.662Z,83.10
2022-09-28T20:22:38.955Z,83.20
2022-09-28T20:25:10.861Z,83.20
2022-09-28T20:27:40.144Z,83.20
2022-09-28T20:30:11.277Z,83.40
2022-09-28T20:32:40.643Z,83.40
2022-09-28T20:35:10.039Z,83.60
2022-09-28T20:37:39.340Z,83.80
2022-09-28T20:40:10.125Z,83.80
2022-09-28T20:42:39.695Z,83.80
2022-09-28T20:45:09.493Z,83.80
2022-09-28T20:47:40.521Z,83.90
2022-09-28T20:50:11.497Z,84.10
2022-09-28T20:52:42.133Z,84.30
2022-09-28T20:55:11.545Z,84.40
2022-09-28T20:57:40.903Z,84.50
2022-09-28T21:00:11.370Z,84.50
2022-09-28T21:02:40.934Z,84.70
2022-09-28T21:05:10.351Z,84.90
2022-09-28T21:07:39.751Z,85.10
2022-09-28T21:10:09.840Z,85.30
2022-09-28T21:12:40.756Z,85.40
2022-09-28T21:15:13.821Z,85.50
2022-09-28T21:17:43.696Z,85.70
2022-09-28T21:20:13.144Z,85.80
2022-09-28T21:22:45.764Z,86.10
2022-09-28T21:25:15.347Z,86.20
2022-09-28T21:27:46.135Z,86.10
2022-09-28T21:30:17.008Z,86.20
2022-09-28T21:32:46.753Z,86.30
2022-09-28T21:35:16.120Z,86.40
2022-09-28T21:37:46.364Z,86.60
2022-09-28T21:40:15.994Z,86.90
2022-09-28T21:42:48.524Z,87.10
2022-09-28T21:45:18.024Z,87.30
2022-09-28T21:47:52.964Z,87.20
2022-09-28T21:50:27.151Z,87.30
2022-09-28T21:52:57.140Z,87.30
2022-09-28T21:55:26.582Z,87.40
2022-09-28T21:57:55.839Z,87.40
2022-09-28T22:00:25.243Z,87.40
2022-09-28T22:02:54.735Z,87.60
2022-09-28T22:05:24.129Z,88.00
2022-09-28T22:07:54.447Z,88.40
2022-09-28T22:10:23.781Z,88.60
2022-09-28T22:12:53.034Z,89.00
2022-09-28T22:15:24.659Z,89.00
2022-09-28T22:17:53.943Z,89.30
2022-09-28T22:20:23.215Z,89.60
2022-09-28T22:22:54.055Z,89.70
2022-09-28T22:25:23.362Z,89.90
2022-09-28T22:27:59.233Z,90.00
2022-09-28T22:30:29.117Z,90.10
2022-09-28T22:32:58.388Z,90.20
2022-09-28T22:35:27.666Z,90.30
2022-09-28T22:37:59.466Z,90.30
2022-09-28T22:40:28.822Z,90.40
2022-09-28T22:42:58.134Z,90.40
2022-09-28T22:45:27.534Z,90.40
2022-09-28T22:47:56.790Z,90.50
2022-09-28T22:50:26.430Z,90.50
2022-09-28T22:52:56.347Z,90.60
2022-09-28T22:55:25.661Z,90.60
2022-09-28T22:57:55.149Z,90.60
2022-09-28T23:00:24.444Z,90.60
2022-09-28T23:02:53.840Z,90.60
2022-09-28T23:05:23.192Z,90.60
2022-09-28T23:07:52.541Z,90.70
2022-09-28T23:10:21.987Z,90.60
2022-09-28T23:12:54.138Z,90.60
2022-09-28T23:15:23.493Z,90.60
2022-09-28T23:17:53.658Z,90.70
2022-09-28T23:20:24.191Z,90.70
2022-09-28T23:22:53.468Z,90.70
2022-09-28T23:25:22.752Z,90.70
2022-09-28T23:27:52.095Z,90.70
2022-09-28T23:30:23.736Z,90.70
2022-09-28T23:32:53.559Z,90.80
2022-09-28T23:35:22.880Z,90.70
2022-09-28T23:37:52.190Z,90.70
2022-09-28T23:40:22.631Z,90.80
2022-09-28T23:42:52.000Z,90.70
2022-09-28T23:45:21.333Z,90.80
2022-09-28T23:47:51.011Z,90.80
2022-09-28T23:50:20.325Z,90.70
2022-09-28T23:52:51.050Z,90.70
2022-09-28T23:55:20.443Z,90.70
2022-09-28T23:57:49.771Z,90.70
